Aérodrome :
LOGIN :

S'inscrire | Disclaimer

   EN    FR    IT 

 










Légende :    VFR   VFR Marginal   IFR   IFR Intensif   IFR Très Intensif
Visi : 
Plafond : 
>= 8 km
>= 3000ft
5 à 8 km
1000 à 3000 ft
1500m à 5 km
500 à 1000 ft
800 à 1500m
200 à 500 ft
< 800m
< 200 ft
Symboles :   Orages  Brouillard  Fortes neiges  Fortes précipitations  Vent > 20 kt
SIGMETs :   Divers  Orages  Givrage  Turbulence  Onde Orograph.  Cendres Volcan.






- Altitude de l'aérodrome : 640 ft
- Code IATA : AOC


EDAC - Altenburg-Nobitz

DERNIER METAR :
  • 271420Z 21009KT 9999 FEW038 06/M02 Q0998

METARs EXPIRÉS :
  • 271350Z 20010KT 9999 FEW034 05/M03 Q0999
  • 271320Z 23011KT 9999 FEW035 05/M01 Q1000
  • 271220Z 22011KT 9999 SCT032 05/M01 Q1001
  • 271150Z 24011KT 9999 BKN030 05/M01 Q1002

TAF TAF EDAC
Valide du 27 à 15h jusqu'au 28 à 00h UTC


271400Z 2715/2724 20009KT 9999 FEW045
BECMG 2715/2718 12004KT
BECMG 2718/2722 27007KT 3000 -SNRA BKN008
TEMPO 2721/2724 2000 SNRA BKN004



MET'MAP, la Météo Aéronautique d'un coup d'oeil ! - Copyright ORBIFLY Décembre 2007 - Disclaimer

ORBIFLY MET'MAP TEAM :

Programmation & Développement : Alexandra Zaïnal
Sur une idée originale de : Baudouin d'Aumeries
Assistance à la programmation : Marc-Olivier Méhu
Soutien technique & logistique : Manuel Goepfert

Contact : metmap@orbifly.com




SOURCES & CREDITS :

   NOAA